Terminal Aerodrome Forecast
Issued by NWS

Home | Current Version | Previous Version | Text Only | Print | Product List | Glossary On
Versions: 1 2 3 4 5 6 7 8 9 10 11 12 13 14
000
FTUS45 KFGZ 232331
TAFSEZ
TAF
KSEZ 232331Z 2400/2424 VRB06KT P6SM SCT050 BKN100
     FM240300 05010KT P6SM SCT050 BKN110
      TEMPO 2403/2405 VRB10G20KT 4SM -TSRA BKN050CB
     FM241800 28010KT P6SM SCT060 BKN120=

USA.gov is the U.S. government's official web portal to all federal, state and local government web resources and services.